Portada
METAR-TAF:

METAR-TAF

Aeropuertos :

Sabzevar, Irán

latitud: 36-13N, longitud: 057-40E, altitud: 941 m

Observación

El informe se hizo hace 7 horas y 21 minutos, a las 16:00 UTC
Viento calma
Temperatura 4°C
Humedad 75%
Presión 1020 hPa
Visibilidad 10 km o más
sin nubes por debajo de 1500 m y sin presencia de cumulonimbus.

METAR: OIMS 241600Z 00000KT CAVOK 04/M00 Q1020

Hora: 02:51 (23:21 UTC)


TAF: falta

Observaciones y pronósticos meteorológicos de más de 4000 aeropuertos (mensajes METAR y TAF).

Los puntos amarillos y rojos representan las estaciones disponibles.

Ponga el ratón en el punto deseado para ver el nombre de la estación.

Haga clic para ver las observaciones y los pronósticos meteorológicos.

Para cambiar el mapa : haga clic en los botones verdes con una cruz de color negro para hacer un zoom, en el botón verde con un guión para alejar o en las flechas verdes para mapas adyacentes.


METAR-TAF: